createdAt,value
2018-03-31T00:01:31.031Z,99131
2018-03-31T00:03:58.478Z,99126
2018-03-31T00:06:25.817Z,99133
2018-03-31T00:08:53.144Z,99134
2018-03-31T00:11:20.557Z,99129
2018-03-31T00:13:48.385Z,99131
2018-03-31T00:16:15.757Z,99135
2018-03-31T00:18:44.375Z,99132
2018-03-31T00:21:11.771Z,99139
2018-03-31T00:23:39.702Z,99140
2018-03-31T00:26:07.133Z,99133
2018-03-31T00:28:34.904Z,99138
2018-03-31T00:31:02.679Z,99135
2018-03-31T00:33:30.568Z,99135
2018-03-31T00:35:59.435Z,99138
2018-03-31T00:38:28.616Z,99138
2018-03-31T00:40:56.239Z,99125
2018-03-31T00:43:23.562Z,99130
2018-03-31T00:45:50.997Z,99131
2018-03-31T00:48:22.852Z,99129
2018-03-31T00:50:51.907Z,99117
2018-03-31T00:53:19.709Z,99123
2018-03-31T00:55:47.399Z,99121
2018-03-31T00:58:14.823Z,99120
2018-03-31T01:00:42.190Z,99118
2018-03-31T01:03:09.526Z,99114
2018-03-31T01:05:36.894Z,99124
2018-03-31T01:08:04.240Z,99115
2018-03-31T01:10:31.590Z,99120
2018-03-31T01:12:58.952Z,99117
2018-03-31T01:15:26.910Z,99128
2018-03-31T01:17:55.344Z,99125
2018-03-31T01:20:22.684Z,99129
2018-03-31T01:22:50.126Z,99124
2018-03-31T01:25:17.630Z,99122
2018-03-31T01:27:45.051Z,99128
2018-03-31T01:30:12.483Z,99135
2018-03-31T01:32:39.851Z,99131
2018-03-31T01:35:07.434Z,99122
2018-03-31T01:37:34.783Z,99129
2018-03-31T01:40:02.244Z,99130
2018-03-31T01:42:29.676Z,99125
2018-03-31T01:44:58.072Z,99126
2018-03-31T01:47:26.037Z,99134
2018-03-31T01:49:53.935Z,99132
2018-03-31T01:52:21.336Z,99134
2018-03-31T01:54:49.627Z,99129
2018-03-31T01:57:16.977Z,99134
2018-03-31T01:59:44.808Z,99124
2018-03-31T02:02:12.976Z,99125
2018-03-31T02:04:40.368Z,99128
2018-03-31T02:07:08.734Z,99126
2018-03-31T02:09:36.055Z,99115
2018-03-31T02:12:03.487Z,99125
2018-03-31T02:14:30.806Z,99118
2018-03-31T02:16:58.157Z,99126
2018-03-31T02:19:25.609Z,99130
2018-03-31T02:21:53.244Z,99128
2018-03-31T02:24:21.369Z,99126
2018-03-31T02:26:48.945Z,99125
2018-03-31T02:29:16.296Z,99119
2018-03-31T02:31:44.130Z,99119
2018-03-31T02:34:11.981Z,99117
2018-03-31T02:36:39.346Z,99124
2018-03-31T02:39:06.697Z,99124
2018-03-31T02:41:34.159Z,99120
2018-03-31T02:44:01.764Z,99130
2018-03-31T02:46:29.207Z,99122
2018-03-31T02:48:56.543Z,99127
2018-03-31T02:51:24.848Z,99120
2018-03-31T02:53:52.295Z,99116
2018-03-31T02:56:19.860Z,99112
2018-03-31T02:58:48.865Z,99116
2018-03-31T03:01:16.187Z,99122
2018-03-31T03:03:43.571Z,99119
2018-03-31T03:06:11.044Z,99125
2018-03-31T03:08:38.577Z,99127
2018-03-31T03:11:05.916Z,99129
2018-03-31T03:13:33.286Z,99122
2018-03-31T03:16:00.624Z,99129
2018-03-31T03:18:28.083Z,99127
2018-03-31T03:20:55.438Z,99134
2018-03-31T03:23:22.807Z,99129
2018-03-31T03:25:50.542Z,99139
2018-03-31T03:28:19.883Z,99135
2018-03-31T03:30:48.152Z,99139
2018-03-31T03:33:15.482Z,99135
2018-03-31T03:35:43.447Z,99147
2018-03-31T03:38:10.988Z,99145
2018-03-31T03:40:39.357Z,99137
2018-03-31T03:43:07.839Z,99147
2018-03-31T03:45:37.246Z,99145
2018-03-31T03:48:05.554Z,99156
2018-03-31T03:50:32.979Z,99150
2018-03-31T03:53:01.108Z,99157
2018-03-31T03:55:31.029Z,99160
2018-03-31T03:57:59.402Z,99157
2018-03-31T04:00:26.740Z,99159
2018-03-31T04:02:55.387Z,99163
2018-03-31T04:05:23.648Z,99163
2018-03-31T04:07:51.063Z,99159
2018-03-31T04:10:18.522Z,99162
2018-03-31T04:12:46.102Z,99165
2018-03-31T04:15:14.012Z,99163
2018-03-31T04:17:41.620Z,99165
2018-03-31T04:20:09.188Z,99159
2018-03-31T04:22:37.556Z,99165
2018-03-31T04:25:05.923Z,99158
2018-03-31T04:27:33.262Z,99157
2018-03-31T04:30:02.377Z,99158
2018-03-31T04:32:30.747Z,99153
2018-03-31T04:34:58.211Z,99166
2018-03-31T04:37:27.636Z,99163
2018-03-31T04:39:55.067Z,99166
2018-03-31T04:42:23.359Z,99155
2018-03-31T04:44:51.624Z,99158
2018-03-31T04:47:19.149Z,99155
2018-03-31T04:49:46.466Z,99157
2018-03-31T04:52:13.816Z,99156
2018-03-31T04:54:41.289Z,99152
2018-03-31T04:57:09.134Z,99145
2018-03-31T04:59:38.539Z,99156
2018-03-31T05:02:06.215Z,99150
2018-03-31T05:04:33.552Z,99159
2018-03-31T05:07:03.151Z,99147
2018-03-31T05:09:54.385Z,99156
2018-03-31T05:12:48.379Z,99158
2018-03-31T05:15:15.787Z,99159
2018-03-31T05:17:43.640Z,99157
2018-03-31T05:20:11.223Z,99164
2018-03-31T05:22:39.494Z,99169
2018-03-31T05:25:06.857Z,99170
2018-03-31T05:27:34.383Z,99176
2018-03-31T05:30:01.949Z,99169
2018-03-31T05:32:30.133Z,99173
2018-03-31T05:34:57.546Z,99173
2018-03-31T05:37:26.342Z,99169
2018-03-31T05:39:53.767Z,99165
2018-03-31T05:42:21.121Z,99170
2018-03-31T05:44:48.572Z,99168
2018-03-31T05:47:16.425Z,99163
2018-03-31T05:49:44.597Z,99165
2018-03-31T05:52:12.787Z,99172
2018-03-31T05:54:40.734Z,99171
2018-03-31T05:57:10.160Z,99157
2018-03-31T05:59:39.526Z,99169
2018-03-31T06:02:08.774Z,99165
2018-03-31T06:04:36.114Z,99159
2018-03-31T06:07:03.556Z,99167
2018-03-31T06:09:30.895Z,99167
2018-03-31T06:11:58.277Z,99174
2018-03-31T06:14:26.735Z,99166
2018-03-31T06:16:54.654Z,99173
2018-03-31T06:19:22.098Z,99174
2018-03-31T06:21:49.535Z,99170
2018-03-31T06:24:18.679Z,99168
2018-03-31T06:26:46.107Z,99179
2018-03-31T06:29:14.347Z,99173
2018-03-31T06:31:43.131Z,99187
2018-03-31T06:34:11.822Z,99183
2018-03-31T06:36:43.303Z,99184
2018-03-31T06:39:11.276Z,99184
2018-03-31T06:41:38.807Z,99179
2018-03-31T06:44:06.632Z,99185
2018-03-31T06:46:35.229Z,99186
2018-03-31T06:49:02.640Z,99194
2018-03-31T06:51:30.106Z,99191
2018-03-31T06:53:58.459Z,99196
2018-03-31T06:56:26.418Z,99200
2018-03-31T06:58:53.766Z,99206
2018-03-31T07:01:22.088Z,99199
2018-03-31T07:03:49.407Z,99207
2018-03-31T07:06:24.122Z,99204
2018-03-31T07:08:53.106Z,99208
2018-03-31T07:11:22.549Z,99205
2018-03-31T07:13:50.362Z,99204
2018-03-31T07:16:17.774Z,99203
2018-03-31T07:18:45.220Z,99212
2018-03-31T07:21:12.850Z,99221
2018-03-31T07:23:40.267Z,99224
2018-03-31T07:26:09.410Z,99216
2018-03-31T07:28:36.996Z,99219
2018-03-31T07:31:05.284Z,99222
2018-03-31T07:33:33.659Z,99220
2018-03-31T07:36:01.296Z,99213
2018-03-31T07:38:28.914Z,99224
2018-03-31T07:40:56.312Z,99218
2018-03-31T07:43:25.640Z,99228
2018-03-31T07:45:54.081Z,99230
2018-03-31T07:48:22.507Z,99225
2018-03-31T07:50:49.920Z,99256
2018-03-31T07:53:17.312Z,99232
2018-03-31T07:55:44.772Z,99235
2018-03-31T07:58:13.121Z,99221
2018-03-31T08:00:40.697Z,99221
2018-03-31T08:03:09.542Z,99231
2018-03-31T08:05:37.641Z,99228
2018-03-31T08:08:04.987Z,99228
2018-03-31T08:10:32.931Z,99240
2018-03-31T08:13:00.543Z,99244
2018-03-31T08:15:27.899Z,99244
2018-03-31T08:17:55.272Z,99233
2018-03-31T08:20:22.718Z,99230
2018-03-31T08:22:50.258Z,99226
2018-03-31T08:25:21.894Z,99226
2018-03-31T08:27:49.218Z,99217
2018-03-31T08:30:17.035Z,99229
2018-03-31T08:32:44.858Z,99223
2018-03-31T08:35:12.457Z,99224
2018-03-31T08:37:40.681Z,99228
2018-03-31T08:40:08.112Z,99221
2018-03-31T08:42:35.844Z,99216
2018-03-31T08:45:03.248Z,99220
2018-03-31T08:47:30.702Z,99209
2018-03-31T08:49:59.084Z,99212
2018-03-31T08:52:26.515Z,99215
2018-03-31T08:54:53.990Z,99211
2018-03-31T08:57:21.438Z,99212
2018-03-31T08:59:48.888Z,99208
2018-03-31T09:02:16.274Z,99209
2018-03-31T09:04:45.498Z,99217
2018-03-31T09:07:13.653Z,99215
2018-03-31T09:09:41.088Z,99211
2018-03-31T09:12:08.540Z,99216
2018-03-31T09:14:35.898Z,99213
2018-03-31T09:17:03.372Z,99218
2018-03-31T09:19:30.798Z,99211
2018-03-31T09:21:58.186Z,99216
2018-03-31T09:24:25.650Z,99217
2018-03-31T09:26:52.971Z,99209
2018-03-31T09:29:20.355Z,99221
2018-03-31T09:31:47.993Z,99219
2018-03-31T09:34:15.208Z,99220
2018-03-31T09:36:43.611Z,99230
2018-03-31T09:39:11.020Z,99223
2018-03-31T09:41:39.171Z,99223
2018-03-31T09:44:06.523Z,99220
2018-03-31T09:46:34.198Z,99220
2018-03-31T09:49:01.517Z,99220
2018-03-31T09:51:29.072Z,99222
2018-03-31T09:53:57.351Z,99221
2018-03-31T09:56:24.681Z,99221
2018-03-31T09:58:52.030Z,99227
2018-03-31T10:01:19.383Z,99229
2018-03-31T10:03:47.487Z,99227
2018-03-31T10:06:14.827Z,99241
2018-03-31T10:08:42.153Z,99230
2018-03-31T10:11:10.060Z,99232
2018-03-31T10:13:38.884Z,99241
2018-03-31T10:16:06.304Z,99236
2018-03-31T10:18:34.151Z,99239
2018-03-31T10:21:01.524Z,99247
2018-03-31T10:23:29.355Z,99243
2018-03-31T10:25:57.496Z,99244
2018-03-31T10:28:24.963Z,99244
2018-03-31T10:30:52.848Z,99241
2018-03-31T10:33:21.040Z,99227
2018-03-31T10:35:49.402Z,99228
2018-03-31T10:38:16.807Z,99232
2018-03-31T10:40:45.049Z,99220
2018-03-31T10:43:12.439Z,99218
2018-03-31T10:45:40.389Z,99234
2018-03-31T10:48:07.888Z,99231
2018-03-31T10:50:35.248Z,99230
2018-03-31T10:53:04.532Z,99242
2018-03-31T10:55:31.983Z,99233
2018-03-31T10:57:59.467Z,99238
2018-03-31T11:00:26.905Z,99227
2018-03-31T11:02:54.260Z,99238
2018-03-31T11:05:21.614Z,99233
2018-03-31T11:07:48.973Z,99235
2018-03-31T11:10:16.603Z,99231
2018-03-31T11:12:45.428Z,99240
2018-03-31T11:15:12.888Z,99249
2018-03-31T11:17:40.217Z,99233
2018-03-31T11:20:07.982Z,99227
2018-03-31T11:22:35.874Z,99236
2018-03-31T11:25:03.405Z,99233
2018-03-31T11:27:31.338Z,99220
2018-03-31T11:29:58.755Z,99227
2018-03-31T11:32:26.347Z,99234
2018-03-31T11:34:55.513Z,99232
2018-03-31T11:37:22.973Z,99227
2018-03-31T11:39:50.490Z,99234
2018-03-31T11:42:18.805Z,99237
2018-03-31T11:44:47.178Z,99233
2018-03-31T11:47:14.644Z,99234
2018-03-31T11:49:41.986Z,99237
2018-03-31T11:52:17.102Z,99237
2018-03-31T11:54:45.501Z,99230
2018-03-31T11:57:13.751Z,99228
2018-03-31T11:59:41.148Z,99232
2018-03-31T12:02:08.600Z,99230
2018-03-31T12:04:37.061Z,99220
2018-03-31T12:07:04.401Z,99229
2018-03-31T12:09:32.210Z,99228
2018-03-31T12:11:59.649Z,99227
2018-03-31T12:14:27.125Z,99234
2018-03-31T12:16:54.519Z,99226
2018-03-31T12:19:22.089Z,99238
2018-03-31T12:21:50.067Z,99224
2018-03-31T12:24:18.205Z,99217
2018-03-31T12:26:46.709Z,99227
2018-03-31T12:29:14.071Z,99226
2018-03-31T12:31:41.440Z,99214
2018-03-31T12:34:08.793Z,99228
2018-03-31T12:36:36.125Z,99230
2018-03-31T12:39:03.474Z,99232
2018-03-31T12:41:32.100Z,99225
2018-03-31T12:43:59.445Z,99230
2018-03-31T12:46:26.815Z,99231
2018-03-31T12:48:54.168Z,99233
2018-03-31T12:51:21.575Z,99230
2018-03-31T12:53:49.163Z,99228
2018-03-31T12:56:16.507Z,99235
2018-03-31T12:58:44.236Z,99240
2018-03-31T13:01:11.796Z,99239
2018-03-31T13:03:39.125Z,99238
2018-03-31T13:06:06.489Z,99233
2018-03-31T13:08:33.823Z,99231
2018-03-31T13:11:02.496Z,99232
2018-03-31T13:13:30.099Z,99226
2018-03-31T13:15:58.244Z,99227
2018-03-31T13:18:25.569Z,99231
2018-03-31T13:20:52.951Z,99217
2018-03-31T13:23:26.862Z,99223
2018-03-31T13:25:58.446Z,99220
2018-03-31T13:28:26.121Z,99222
2018-03-31T13:30:54.237Z,99216
2018-03-31T13:33:21.579Z,99218
2018-03-31T13:35:49.760Z,99224
2018-03-31T13:38:17.642Z,99224
2018-03-31T13:40:45.534Z,99219
2018-03-31T13:43:12.860Z,99215
2018-03-31T13:45:40.220Z,99223
2018-03-31T13:48:07.555Z,99209
2018-03-31T13:50:34.887Z,99208
2018-03-31T13:53:03.187Z,99209
2018-03-31T13:55:30.781Z,99206
2018-03-31T13:57:59.516Z,99208
2018-03-31T14:00:26.882Z,99214
2018-03-31T14:02:54.228Z,99204
2018-03-31T14:05:21.805Z,99203
2018-03-31T14:07:49.460Z,99200
2018-03-31T14:10:17.059Z,99208
2018-03-31T14:12:46.472Z,99210
2018-03-31T14:15:13.823Z,99217
2018-03-31T14:17:43.464Z,99204
2018-03-31T14:20:10.811Z,99216
2018-03-31T14:22:38.670Z,99212
2018-03-31T14:25:06.004Z,99209
2018-03-31T14:27:33.331Z,99208
2018-03-31T14:30:00.691Z,99207
2018-03-31T14:32:28.043Z,99219
2018-03-31T14:34:55.833Z,99206
2018-03-31T14:37:23.202Z,99212
2018-03-31T14:39:50.522Z,99209
2018-03-31T14:42:18.264Z,99202
2018-03-31T14:44:45.886Z,99205
2018-03-31T14:47:13.710Z,99215
2018-03-31T14:49:41.283Z,99210
2018-03-31T14:52:09.561Z,99207
2018-03-31T14:54:37.456Z,99206
2018-03-31T14:57:04.805Z,99205
2018-03-31T14:59:32.168Z,99206
2018-03-31T15:01:59.580Z,99203
2018-03-31T15:04:26.906Z,99200
2018-03-31T15:06:55.035Z,99205
2018-03-31T15:09:24.528Z,99209
2018-03-31T15:11:53.027Z,99214
2018-03-31T15:14:21.986Z,99210
2018-03-31T15:16:49.342Z,99208
2018-03-31T15:19:16.667Z,99211
2018-03-31T15:21:44.019Z,99210
2018-03-31T15:24:11.881Z,99214
2018-03-31T15:26:40.062Z,99214
2018-03-31T15:29:08.577Z,99211
2018-03-31T15:31:36.481Z,99210
2018-03-31T15:34:03.808Z,99209
2018-03-31T15:36:31.166Z,99206
2018-03-31T15:38:58.621Z,99210
2018-03-31T15:41:26.820Z,99214
2018-03-31T15:43:54.209Z,99214
2018-03-31T15:46:21.564Z,99202
2018-03-31T15:48:48.898Z,99204
2018-03-31T15:51:16.256Z,99203
2018-03-31T15:53:44.386Z,99205
2018-03-31T15:56:12.104Z,99205
2018-03-31T15:58:40.387Z,99195
2018-03-31T16:01:07.735Z,99200
2018-03-31T16:03:35.068Z,99205
2018-03-31T16:06:02.420Z,99203
2018-03-31T16:08:29.844Z,99199
2018-03-31T16:10:58.349Z,99202
2018-03-31T16:13:25.700Z,99215
2018-03-31T16:15:53.058Z,99202
2018-03-31T16:18:20.418Z,99206
2018-03-31T16:20:47.842Z,99207
2018-03-31T16:23:16.035Z,99204
2018-03-31T16:25:43.372Z,99213
2018-03-31T16:28:10.723Z,99209
2018-03-31T16:30:38.077Z,99210
2018-03-31T16:33:05.450Z,99216
2018-03-31T16:35:34.519Z,99214
2018-03-31T16:38:01.854Z,99225
2018-03-31T16:40:29.973Z,99216
2018-03-31T16:42:58.214Z,99217
2018-03-31T16:45:25.550Z,99218
2018-03-31T16:47:52.988Z,99220
2018-03-31T16:50:20.536Z,99226
2018-03-31T16:52:47.876Z,99216
2018-03-31T16:55:15.210Z,99219
2018-03-31T16:57:42.587Z,99211
2018-03-31T17:00:09.928Z,99217
2018-03-31T17:02:38.095Z,99219
2018-03-31T17:05:05.418Z,99216
2018-03-31T17:07:33.518Z,99224
2018-03-31T17:10:00.878Z,99221
2018-03-31T17:12:28.213Z,99235
2018-03-31T17:14:55.546Z,99225
2018-03-31T17:17:23.676Z,99238
2018-03-31T17:19:51.015Z,99231
2018-03-31T17:22:18.412Z,99237
2018-03-31T17:24:45.759Z,99235
2018-03-31T17:27:13.099Z,99238
2018-03-31T17:29:40.456Z,99250
2018-03-31T17:32:07.794Z,99244
2018-03-31T17:34:35.148Z,99249
2018-03-31T17:37:02.493Z,99254
2018-03-31T17:39:29.815Z,99250
2018-03-31T17:41:57.164Z,99249
2018-03-31T17:44:25.721Z,99253
2018-03-31T17:46:53.063Z,99255
2018-03-31T17:49:20.863Z,99269
2018-03-31T17:51:48.203Z,99267
2018-03-31T17:54:16.139Z,99270
2018-03-31T17:56:43.486Z,99274
2018-03-31T17:59:10.844Z,99271
2018-03-31T18:01:38.509Z,99269
2018-03-31T18:04:07.899Z,99266
2018-03-31T18:06:35.245Z,99276
2018-03-31T18:09:02.571Z,99276
2018-03-31T18:11:29.923Z,99276
2018-03-31T18:13:57.278Z,99279
2018-03-31T18:16:24.625Z,99290
2018-03-31T18:18:51.972Z,99277
2018-03-31T18:21:19.299Z,99285
2018-03-31T18:23:46.663Z,99289
2018-03-31T18:26:13.995Z,99290
2018-03-31T18:28:41.323Z,99296
2018-03-31T18:31:09.521Z,99289
2018-03-31T18:33:36.850Z,99308
2018-03-31T18:36:04.512Z,99295
2018-03-31T18:38:31.855Z,99304
2018-03-31T18:40:59.197Z,99311
2018-03-31T18:43:26.551Z,99320
2018-03-31T18:45:54.241Z,99312
2018-03-31T18:48:21.594Z,99320
2018-03-31T18:50:50.647Z,99322
2018-03-31T18:53:17.976Z,99322
2018-03-31T18:55:45.576Z,99334
2018-03-31T18:58:13.240Z,99330
2018-03-31T19:00:40.579Z,99338
2018-03-31T19:03:07.920Z,99334
2018-03-31T19:05:35.939Z,99336
2018-03-31T19:08:03.358Z,99351
2018-03-31T19:10:30.703Z,99362
2018-03-31T19:12:58.889Z,99374
2018-03-31T19:15:27.911Z,99373
2018-03-31T19:17:55.256Z,99374
2018-03-31T19:20:22.610Z,99378
2018-03-31T19:22:49.948Z,99385
2018-03-31T19:25:22.715Z,99383
2018-03-31T19:27:50.044Z,99382
2018-03-31T19:30:17.517Z,99386
2018-03-31T19:32:44.854Z,99392
2018-03-31T19:35:12.184Z,99395
2018-03-31T19:37:39.523Z,99394
2018-03-31T19:40:06.883Z,99401
2018-03-31T19:42:34.591Z,99420
2018-03-31T19:45:02.871Z,99425
2018-03-31T19:47:30.851Z,99430
2018-03-31T19:49:58.684Z,99429
2018-03-31T19:52:27.236Z,99434
2018-03-31T19:54:55.271Z,99445
2018-03-31T19:57:23.044Z,99446
2018-03-31T19:59:50.953Z,99445
2018-03-31T20:02:18.285Z,99468
2018-03-31T20:04:46.113Z,99449
2018-03-31T20:07:13.426Z,99456
2018-03-31T20:09:40.792Z,99458
2018-03-31T20:12:08.205Z,99466
2018-03-31T20:14:35.981Z,99474
2018-03-31T20:17:03.307Z,99477
2018-03-31T20:19:30.689Z,99479
2018-03-31T20:21:58.138Z,99483
2018-03-31T20:24:25.532Z,99487
2018-03-31T20:26:54.105Z,99480
2018-03-31T20:29:21.530Z,99484
2018-03-31T20:31:49.708Z,99494
2018-03-31T20:34:17.542Z,99488
2018-03-31T20:36:44.975Z,99490
2018-03-31T20:39:13.104Z,99480
2018-03-31T20:41:40.470Z,99485
2018-03-31T20:44:07.900Z,99490
2018-03-31T20:46:35.239Z,99487
2018-03-31T20:49:02.746Z,99484
2018-03-31T20:51:33.568Z,99483
2018-03-31T20:54:03.009Z,99481
2018-03-31T20:56:32.101Z,99481
2018-03-31T20:58:59.377Z,99478
2018-03-31T21:01:26.701Z,99483
2018-03-31T21:03:54.602Z,99479
2018-03-31T21:06:21.964Z,99479
2018-03-31T21:08:49.763Z,99486
2018-03-31T21:11:17.149Z,99475
2018-03-31T21:13:45.579Z,99486
2018-03-31T21:16:14.409Z,99483
2018-03-31T21:18:43.263Z,99483
2018-03-31T21:21:10.607Z,99473
2018-03-31T21:23:37.958Z,99478
2018-03-31T21:26:05.307Z,99485
2018-03-31T21:28:33.598Z,99486
2018-03-31T21:31:00.939Z,99485
2018-03-31T21:33:28.347Z,99487
2018-03-31T21:35:55.683Z,99492
2018-03-31T21:38:23.046Z,99497
2018-03-31T21:40:50.379Z,99491
2018-03-31T21:43:17.743Z,99500
2018-03-31T21:45:45.099Z,99506
2018-03-31T21:48:13.440Z,99501
2018-03-31T21:50:41.026Z,99490
2018-03-31T21:53:08.371Z,99491
2018-03-31T21:55:35.730Z,99499
2018-03-31T21:58:03.087Z,99491
2018-03-31T22:00:30.670Z,99496
2018-03-31T22:02:58.939Z,99500
2018-03-31T22:05:26.286Z,99500
2018-03-31T22:07:53.630Z,99500
2018-03-31T22:10:21.227Z,99500
2018-03-31T22:12:49.380Z,99502
2018-03-31T22:15:22.152Z,99503
2018-03-31T22:17:50.315Z,99505
2018-03-31T22:20:20.892Z,99515
2018-03-31T22:22:48.337Z,99499
2018-03-31T22:25:16.618Z,99509
2018-03-31T22:27:44.101Z,99509
2018-03-31T22:30:12.207Z,99503
2018-03-31T22:32:39.559Z,99498
2018-03-31T22:35:06.885Z,99506
2018-03-31T22:37:34.223Z,99502
2018-03-31T22:40:01.551Z,99511
2018-03-31T22:42:29.249Z,99508
2018-03-31T22:44:56.599Z,99515
2018-03-31T22:47:23.978Z,99513
2018-03-31T22:49:51.762Z,99508
2018-03-31T22:52:19.132Z,99506
2018-03-31T22:54:46.665Z,99495
2018-03-31T22:57:14.007Z,99505
2018-03-31T22:59:42.135Z,99509
2018-03-31T23:02:10.179Z,99495
2018-03-31T23:04:37.528Z,99499
2018-03-31T23:07:04.896Z,99504
2018-03-31T23:09:32.216Z,99506
2018-03-31T23:12:00.329Z,99501
2018-03-31T23:14:28.054Z,99506
2018-03-31T23:16:55.395Z,99506
2018-03-31T23:19:23.498Z,99509
2018-03-31T23:21:51.771Z,99504
2018-03-31T23:24:19.164Z,99517
2018-03-31T23:26:46.508Z,99510
2018-03-31T23:29:13.847Z,99513
2018-03-31T23:31:41.750Z,99512
2018-03-31T23:34:09.310Z,99523
2018-03-31T23:36:37.004Z,99516
2018-03-31T23:39:04.341Z,99514
2018-03-31T23:41:31.674Z,99519
2018-03-31T23:43:59.020Z,99517
2018-03-31T23:46:26.354Z,99517
2018-03-31T23:48:53.726Z,99523
2018-03-31T23:51:21.976Z,99524
2018-03-31T23:53:49.336Z,99518
2018-03-31T23:56:16.707Z,99517
2018-03-31T23:58:44.050Z,99516
